createdAt,value
2023-02-14T00:01:16.490Z,102804.25
2023-02-14T00:03:49.335Z,102802.25
2023-02-14T00:06:17.655Z,102800.94
2023-02-14T00:08:47.928Z,102800.28
2023-02-14T00:11:15.552Z,102800.59
2023-02-14T00:14:06.533Z,102803.09
2023-02-14T00:16:42.159Z,102799.78
2023-02-14T00:19:15.801Z,102804.28
2023-02-14T00:21:46.019Z,102802.75
2023-02-14T00:24:26.256Z,102796.00
2023-02-14T00:26:56.860Z,102795.63
2023-02-14T00:29:27.689Z,102785.72
2023-02-14T00:32:01.405Z,102784.56
2023-02-14T00:34:33.412Z,102780.16
2023-02-14T00:37:04.281Z,102781.31
2023-02-14T00:39:34.352Z,102774.72
2023-02-14T00:42:08.053Z,102774.47
2023-02-14T00:44:38.035Z,102774.03
2023-02-14T00:47:14.256Z,102777.06
2023-02-14T00:49:53.548Z,102762.31
2023-02-14T00:52:26.042Z,102769.28
2023-02-14T00:54:53.812Z,102770.09
2023-02-14T00:57:24.582Z,102766.16
2023-02-14T00:59:57.057Z,102762.31
2023-02-14T01:02:31.069Z,102749.91
2023-02-14T01:05:07.602Z,102753.91
2023-02-14T01:07:36.904Z,102758.13
2023-02-14T01:10:09.990Z,102753.81
2023-02-14T01:12:41.126Z,102753.94
2023-02-14T01:15:13.695Z,102754.25
2023-02-14T01:17:40.963Z,102741.69
2023-02-14T01:20:09.463Z,102742.72
2023-02-14T01:22:37.779Z,102739.66
2023-02-14T01:25:08.517Z,102743.28
2023-02-14T01:27:38.867Z,102728.72
2023-02-14T01:30:09.611Z,102732.53
2023-02-14T01:32:46.312Z,102723.94
2023-02-14T01:35:21.851Z,102723.44
2023-02-14T01:37:52.181Z,102721.44
2023-02-14T01:40:27.950Z,102709.09
2023-02-14T01:42:58.399Z,102715.94
2023-02-14T01:45:32.257Z,102712.13
2023-02-14T01:48:02.939Z,102707.00
2023-02-14T01:50:39.671Z,102706.50
2023-02-14T01:53:14.836Z,102701.22
2023-02-14T01:55:56.948Z,102702.19
2023-02-14T01:58:35.574Z,102702.69
2023-02-14T02:01:04.260Z,102685.84
2023-02-14T02:03:44.496Z,102684.19
2023-02-14T02:06:44.608Z,102684.22
2023-02-14T02:09:28.584Z,102674.22
2023-02-14T02:12:00.190Z,102671.75
2023-02-14T02:14:30.282Z,102672.84
2023-02-14T02:17:15.490Z,102675.28
2023-02-14T02:20:16.682Z,102678.28
2023-02-14T02:23:17.423Z,102667.50
2023-02-14T02:26:12.961Z,102653.13
2023-02-14T02:29:02.598Z,102651.28
2023-02-14T02:31:45.157Z,102651.72
2023-02-14T02:34:50.241Z,102642.31
2023-02-14T02:37:43.045Z,102633.91
2023-02-14T02:40:27.068Z,102644.44
2023-02-14T02:43:32.452Z,102637.84
2023-02-14T02:46:30.189Z,102635.03
2023-02-14T02:49:45.924Z,102640.59
2023-02-14T02:52:53.533Z,102646.22
2023-02-14T02:56:02.568Z,102635.13
2023-02-14T02:58:35.179Z,102630.56
2023-02-14T03:01:09.384Z,102634.25
2023-02-14T03:04:01.341Z,102636.16
2023-02-14T03:06:35.898Z,102640.13
2023-02-14T03:09:20.796Z,102639.78
2023-02-14T03:12:14.817Z,102639.22
2023-02-14T03:14:52.462Z,102635.63
2023-02-14T03:17:49.561Z,102635.13
2023-02-14T03:20:41.247Z,102636.91
2023-02-14T03:23:20.527Z,102638.91
2023-02-14T03:26:07.722Z,102638.84
2023-02-14T03:28:46.170Z,102642.38
2023-02-14T03:31:29.217Z,102653.69
2023-02-14T03:34:08.349Z,102650.50
2023-02-14T03:36:54.756Z,102652.44
2023-02-14T03:39:43.264Z,102652.47
2023-02-14T03:42:26.346Z,102652.47
2023-02-14T03:44:58.370Z,102662.81
2023-02-14T03:47:30.931Z,102661.06
2023-02-14T03:50:10.618Z,102676.13
2023-02-14T03:52:40.484Z,102665.59
2023-02-14T03:55:14.975Z,102665.59
2023-02-14T03:57:59.591Z,102672.91
2023-02-14T04:00:34.048Z,102674.41
2023-02-14T04:03:11.832Z,102671.31
2023-02-14T04:05:46.698Z,102670.72
2023-02-14T04:08:25.577Z,102672.34
2023-02-14T04:10:54.284Z,102676.41
2023-02-14T04:13:24.510Z,102669.66
2023-02-14T04:16:00.754Z,102678.53
2023-02-14T04:18:46.671Z,102673.47
2023-02-14T04:21:15.276Z,102669.72
2023-02-14T04:23:45.914Z,102662.81
2023-02-14T04:26:17.438Z,102664.94
2023-02-14T04:28:47.798Z,102665.41
2023-02-14T04:31:18.114Z,102667.94
2023-02-14T04:33:51.230Z,102662.66
2023-02-14T04:36:20.411Z,102666.06
2023-02-14T04:38:51.092Z,102667.81
2023-02-14T04:41:24.452Z,102668.22
2023-02-14T04:43:52.599Z,102665.41
2023-02-14T04:46:20.374Z,102659.44
2023-02-14T04:48:56.794Z,102673.88
2023-02-14T04:51:27.641Z,102666.63
2023-02-14T04:53:58.338Z,102658.50
2023-02-14T04:56:30.951Z,102658.66
2023-02-14T04:59:04.623Z,102659.03
2023-02-14T05:01:34.592Z,102648.53
2023-02-14T05:04:05.117Z,102650.06
2023-02-14T05:06:35.159Z,102648.00
2023-02-14T05:09:05.512Z,102640.97
2023-02-14T05:11:33.423Z,102641.41
2023-02-14T05:14:06.906Z,102651.22
2023-02-14T05:16:42.274Z,102654.78
2023-02-14T05:19:10.008Z,102659.34
2023-02-14T05:21:40.570Z,102657.34
2023-02-14T05:24:13.470Z,102652.09
2023-02-14T05:26:43.405Z,102651.81
2023-02-14T05:29:13.485Z,102652.00
2023-02-14T05:31:43.646Z,102656.03
2023-02-14T05:34:13.608Z,102663.91
2023-02-14T05:36:45.380Z,102663.22
2023-02-14T05:39:14.606Z,102665.13
2023-02-14T05:41:44.355Z,102675.63
2023-02-14T05:44:14.587Z,102673.53
2023-02-14T05:46:48.379Z,102674.19
2023-02-14T05:49:18.820Z,102682.44
2023-02-14T05:51:48.532Z,102690.34
2023-02-14T05:54:20.994Z,102685.94
2023-02-14T05:56:53.613Z,102682.00
2023-02-14T05:59:29.161Z,102686.66
2023-02-14T06:01:57.517Z,102695.47
2023-02-14T06:04:30.979Z,102694.59
2023-02-14T06:07:01.083Z,102692.94
2023-02-14T06:09:28.773Z,102699.38
2023-02-14T06:12:01.955Z,102693.72
2023-02-14T06:14:34.558Z,102692.50
2023-02-14T06:17:09.505Z,102699.13
2023-02-14T06:19:39.407Z,102699.41
2023-02-14T06:22:09.904Z,102697.47
2023-02-14T06:24:42.579Z,102690.91
2023-02-14T06:27:15.551Z,102701.97
2023-02-14T06:29:46.070Z,102699.91
2023-02-14T06:32:16.371Z,102698.31
2023-02-14T06:34:52.134Z,102699.38
2023-02-14T06:37:27.977Z,102694.41
2023-02-14T06:40:01.949Z,102698.25
2023-02-14T06:42:31.948Z,102701.53
2023-02-14T06:45:05.618Z,102694.78
2023-02-14T06:47:35.741Z,102693.75
2023-02-14T06:50:05.264Z,102696.94
2023-02-14T06:52:36.741Z,102697.81
2023-02-14T06:55:09.492Z,102696.44
2023-02-14T06:57:39.018Z,102701.63
2023-02-14T07:00:11.651Z,102698.25
2023-02-14T07:02:43.883Z,102701.44
2023-02-14T07:05:19.130Z,102715.00
2023-02-14T07:07:52.263Z,102710.75
2023-02-14T07:10:19.662Z,102714.50
2023-02-14T07:12:50.558Z,102716.84
2023-02-14T07:15:23.661Z,102714.41
2023-02-14T07:17:59.012Z,102709.84
2023-02-14T07:20:27.785Z,102710.84
2023-02-14T07:22:58.236Z,102710.66
2023-02-14T07:25:28.396Z,102705.34
2023-02-14T07:27:56.108Z,102700.50
2023-02-14T07:30:26.474Z,102698.31
2023-02-14T07:32:54.086Z,102700.31
2023-02-14T07:35:24.428Z,102692.63
2023-02-14T07:37:52.358Z,102696.44
2023-02-14T07:40:20.640Z,102696.53
2023-02-14T07:42:58.495Z,102694.22
2023-02-14T07:45:28.622Z,102696.53
2023-02-14T07:48:02.341Z,102685.56
2023-02-14T07:50:33.585Z,102688.56
2023-02-14T07:53:03.566Z,102690.47
2023-02-14T07:55:40.729Z,102690.75
2023-02-14T07:58:10.923Z,102690.59
2023-02-14T08:00:43.832Z,102692.94
2023-02-14T08:03:14.204Z,102697.25
2023-02-14T08:05:42.268Z,102693.97
2023-02-14T08:08:13.157Z,102702.78
2023-02-14T08:10:41.066Z,102694.88
2023-02-14T08:13:11.318Z,102688.28
2023-02-14T08:16:01.255Z,102688.28
2023-02-14T08:18:31.461Z,102680.91
2023-02-14T08:21:04.614Z,102678.72
2023-02-14T08:23:32.991Z,102695.00
2023-02-14T08:26:08.482Z,102696.16
2023-02-14T08:28:41.344Z,102695.75
2023-02-14T08:31:09.953Z,102696.88
2023-02-14T08:33:43.253Z,102698.25
2023-02-14T08:36:11.451Z,102698.25
2023-02-14T08:38:41.641Z,102696.31
2023-02-14T08:41:12.080Z,102689.50
2023-02-14T08:43:40.183Z,102684.03
2023-02-14T08:46:11.130Z,102687.63
2023-02-14T08:48:41.687Z,102691.84
2023-02-14T08:51:15.154Z,102693.22
2023-02-14T08:53:46.489Z,102699.03
2023-02-14T08:56:18.072Z,102688.88
2023-02-14T08:58:45.987Z,102695.63
2023-02-14T09:01:20.645Z,102684.88
2023-02-14T09:03:53.470Z,102687.56
2023-02-14T09:06:26.775Z,102685.38
2023-02-14T09:08:57.647Z,102681.44
2023-02-14T09:11:26.383Z,102678.84
2023-02-14T09:13:54.902Z,102676.34
2023-02-14T09:16:28.405Z,102687.56
2023-02-14T09:18:56.870Z,102683.22
2023-02-14T09:21:28.192Z,102684.75
2023-02-14T09:23:59.198Z,102683.56
2023-02-14T09:26:36.966Z,102683.56
2023-02-14T09:29:05.131Z,102688.06
2023-02-14T09:31:40.891Z,102676.75
2023-02-14T09:34:11.548Z,102677.09
2023-02-14T09:37:06.348Z,102672.88
2023-02-14T09:39:34.469Z,102668.88
2023-02-14T09:42:08.785Z,102659.50
2023-02-14T09:44:54.012Z,102656.81
2023-02-14T09:47:40.974Z,102660.94
2023-02-14T09:50:20.875Z,102654.19
2023-02-14T09:52:55.291Z,102653.41
2023-02-14T09:55:34.597Z,102645.16
2023-02-14T09:58:27.057Z,102652.94
2023-02-14T10:01:22.527Z,102645.63
2023-02-14T10:04:18.618Z,102652.94
2023-02-14T10:06:51.956Z,102637.13
2023-02-14T10:09:44.532Z,102634.59
2023-02-14T10:12:36.806Z,102631.09
2023-02-14T10:15:32.250Z,102636.25
2023-02-14T10:18:13.523Z,102626.41
2023-02-14T10:20:56.435Z,102621.94
2023-02-14T10:24:16.906Z,102622.88
2023-02-14T10:26:50.814Z,102605.47
2023-02-14T10:29:21.124Z,102597.78
2023-02-14T10:32:01.436Z,102606.50
2023-02-14T10:34:49.177Z,102605.38
2023-02-14T10:37:32.354Z,102595.22
2023-02-14T10:40:19.054Z,102593.22
2023-02-14T10:43:20.781Z,102588.03
2023-02-14T10:46:13.731Z,102585.22
2023-02-14T10:49:11.032Z,102577.66
2023-02-14T10:51:51.193Z,102575.66
2023-02-14T10:54:29.175Z,102570.00
2023-02-14T10:57:33.986Z,102572.84
2023-02-14T11:00:24.865Z,102559.78
2023-02-14T11:02:58.240Z,102558.84
2023-02-14T11:05:47.576Z,102556.38
2023-02-14T11:08:38.380Z,102553.53
2023-02-14T11:11:24.856Z,102546.00
2023-02-14T11:13:59.191Z,102544.13
2023-02-14T11:16:40.107Z,102530.44
2023-02-14T11:19:25.650Z,102536.81
2023-02-14T11:21:57.126Z,102530.81
2023-02-14T11:24:33.621Z,102530.22
2023-02-14T11:27:13.421Z,102524.09
2023-02-14T11:29:48.309Z,102518.22
2023-02-14T11:32:28.690Z,102511.25
2023-02-14T11:35:19.839Z,102503.97
2023-02-14T11:37:53.726Z,102498.88
2023-02-14T11:40:35.744Z,102500.06
2023-02-14T11:43:15.920Z,102493.81
2023-02-14T11:45:46.502Z,102489.34
2023-02-14T11:48:37.858Z,102485.00
2023-02-14T11:51:10.633Z,102472.84
2023-02-14T11:53:56.266Z,102472.00
2023-02-14T11:56:24.446Z,102465.66
2023-02-14T11:59:03.798Z,102460.94
2023-02-14T12:01:38.822Z,102465.88
2023-02-14T12:04:15.886Z,102457.31
2023-02-14T12:06:46.257Z,102455.91
2023-02-14T12:09:23.052Z,102447.88
2023-02-14T12:12:16.048Z,102441.16
2023-02-14T12:14:46.932Z,102434.69
2023-02-14T12:17:30.598Z,102436.75
2023-02-14T12:20:24.866Z,102428.75
2023-02-14T12:23:02.502Z,102425.22
2023-02-14T12:25:54.744Z,102414.63
2023-02-14T12:28:31.678Z,102414.81
2023-02-14T12:31:06.176Z,102416.94
2023-02-14T12:33:33.994Z,102421.09
2023-02-14T12:36:07.287Z,102414.00
2023-02-14T12:38:46.409Z,102409.66
2023-02-14T12:41:36.041Z,102401.88
2023-02-14T12:44:42.005Z,102395.03
2023-02-14T12:47:18.469Z,102399.53
2023-02-14T12:49:59.233Z,102382.66
2023-02-14T12:52:33.156Z,102377.56
2023-02-14T12:55:19.669Z,102376.00
2023-02-14T12:57:47.403Z,102364.00
2023-02-14T13:00:39.039Z,102362.69
2023-02-14T13:03:35.356Z,102357.75
2023-02-14T13:06:29.612Z,102351.66
2023-02-14T13:09:16.282Z,102341.38
2023-02-14T13:12:15.164Z,102348.09
2023-02-14T13:14:57.329Z,102336.06
2023-02-14T13:17:43.493Z,102335.59
2023-02-14T13:20:32.356Z,102331.81
2023-02-14T13:23:16.295Z,102320.97
2023-02-14T13:25:50.220Z,102323.81
2023-02-14T13:28:24.430Z,102322.44
2023-02-14T13:30:54.962Z,102321.44
2023-02-14T13:33:35.238Z,102318.69
2023-02-14T13:36:13.923Z,102314.41
2023-02-14T13:41:35.177Z,102310.69
2023-02-14T13:44:11.616Z,102305.19
2023-02-14T13:46:50.590Z,102301.56
2023-02-14T13:49:22.089Z,102304.81
2023-02-14T13:51:57.667Z,102299.81
2023-02-14T13:54:46.270Z,102303.19
2023-02-14T13:57:36.749Z,102298.69
2023-02-14T14:00:19.776Z,102292.81
2023-02-14T14:03:00.571Z,102289.97
2023-02-14T14:05:35.640Z,102295.59
2023-02-14T14:08:26.626Z,102288.03
2023-02-14T14:11:00.443Z,102287.75
2023-02-14T14:13:46.770Z,102295.44
2023-02-14T14:16:30.694Z,102282.44
2023-02-14T14:19:07.394Z,102283.50
2023-02-14T14:21:59.314Z,102277.78
2023-02-14T14:24:35.941Z,102279.97
2023-02-14T14:27:17.295Z,102273.44
2023-02-14T14:29:51.420Z,102264.56
2023-02-14T14:32:32.000Z,102266.56
2023-02-14T14:35:06.298Z,102266.94
2023-02-14T14:37:46.411Z,102261.41
2023-02-14T14:40:34.494Z,102262.91
2023-02-14T14:43:34.440Z,102263.94
2023-02-14T14:46:06.999Z,102270.13
2023-02-14T14:48:43.161Z,102268.34
2023-02-14T14:51:31.714Z,102262.00
2023-02-14T14:54:21.486Z,102254.94
2023-02-14T14:57:01.678Z,102262.97
2023-02-14T14:59:30.287Z,102249.81
2023-02-14T15:02:01.615Z,102250.31
2023-02-14T15:04:39.355Z,102252.25
2023-02-14T15:07:33.736Z,102258.59
2023-02-14T15:10:23.706Z,102261.69
2023-02-14T15:13:14.226Z,102261.22
2023-02-14T15:15:51.150Z,102258.00
2023-02-14T15:18:21.576Z,102250.22
2023-02-14T15:20:56.445Z,102250.81
2023-02-14T15:23:28.487Z,102254.75
2023-02-14T15:26:01.810Z,102249.91
2023-02-14T15:28:38.710Z,102245.41
2023-02-14T15:31:07.908Z,102240.34
2023-02-14T15:33:39.333Z,102241.97
2023-02-14T15:36:19.559Z,102241.69
2023-02-14T15:38:52.149Z,102239.19
2023-02-14T15:41:20.965Z,102243.25
2023-02-14T15:43:58.066Z,102241.38
2023-02-14T15:46:29.136Z,102240.34
2023-02-14T15:49:06.675Z,102242.53
2023-02-14T15:51:40.778Z,102240.75
2023-02-14T15:54:42.532Z,102231.34
2023-02-14T15:57:26.268Z,102243.16
2023-02-14T15:59:58.312Z,102231.69
2023-02-14T16:02:40.535Z,102232.66
2023-02-14T16:05:27.579Z,102244.00
2023-02-14T16:08:08.179Z,102237.47
2023-02-14T16:10:39.908Z,102240.53
2023-02-14T16:13:20.668Z,102240.16
2023-02-14T16:16:18.419Z,102240.59
2023-02-14T16:18:57.126Z,102240.50
2023-02-14T16:21:33.544Z,102231.28
2023-02-14T16:24:07.677Z,102245.97
2023-02-14T16:26:39.631Z,102241.72
2023-02-14T16:29:13.889Z,102244.22
2023-02-14T16:32:14.660Z,102250.91
2023-02-14T16:34:53.545Z,102244.53
2023-02-14T16:37:36.343Z,102250.47
2023-02-14T16:40:13.278Z,102249.84
2023-02-14T16:42:42.619Z,102249.84
2023-02-14T16:45:19.366Z,102249.84
2023-02-14T16:47:56.058Z,102253.47
2023-02-14T16:50:26.695Z,102246.88
2023-02-14T16:52:58.507Z,102264.59
2023-02-14T16:55:30.191Z,102262.44
2023-02-14T16:58:03.981Z,102274.81
2023-02-14T17:00:31.995Z,102269.31
2023-02-14T17:03:11.751Z,102272.97
2023-02-14T17:05:45.899Z,102271.50
2023-02-14T17:08:15.984Z,102268.41
2023-02-14T17:10:49.710Z,102266.72
2023-02-14T17:13:30.888Z,102265.03
2023-02-14T17:16:03.968Z,102264.47
2023-02-14T17:18:43.214Z,102265.59
2023-02-14T17:21:19.140Z,102272.41
2023-02-14T17:23:47.469Z,102266.31
2023-02-14T17:26:21.323Z,102273.06
2023-02-14T17:28:51.642Z,102278.28
2023-02-14T17:31:22.246Z,102278.63
2023-02-14T17:33:55.295Z,102271.69
2023-02-14T17:36:24.602Z,102274.34
2023-02-14T17:38:57.939Z,102268.69
2023-02-14T17:41:31.394Z,102272.72
2023-02-14T17:44:02.077Z,102267.31
2023-02-14T17:46:35.937Z,102274.25
2023-02-14T17:49:09.081Z,102274.16
2023-02-14T17:51:41.907Z,102275.44
2023-02-14T17:54:12.238Z,102277.91
2023-02-14T17:56:42.183Z,102281.47
2023-02-14T17:59:12.550Z,102276.63
2023-02-14T18:01:43.693Z,102272.44
2023-02-14T18:04:18.360Z,102277.25
2023-02-14T18:06:49.601Z,102282.19
2023-02-14T18:09:25.732Z,102270.78
2023-02-14T18:11:53.894Z,102273.16
2023-02-14T18:14:27.793Z,102280.09
2023-02-14T18:17:00.961Z,102273.25
2023-02-14T18:19:34.292Z,102280.09
2023-02-14T18:22:04.999Z,102282.91
2023-02-14T18:24:35.809Z,102277.25
2023-02-14T18:27:06.644Z,102278.91
2023-02-14T18:29:36.895Z,102281.09
2023-02-14T18:32:14.906Z,102284.84
2023-02-14T18:34:42.727Z,102276.25
2023-02-14T18:37:13.719Z,102277.53
2023-02-14T18:39:49.615Z,102270.50
2023-02-14T18:42:17.692Z,102277.53
2023-02-14T18:44:51.449Z,102281.56
2023-02-14T18:47:19.645Z,102279.34
2023-02-14T18:49:47.543Z,102278.63
2023-02-14T18:52:18.314Z,102287.38
2023-02-14T18:54:46.201Z,102286.47
2023-02-14T18:57:16.954Z,102286.78
2023-02-14T18:59:49.482Z,102284.34
2023-02-14T19:02:22.942Z,102284.69
2023-02-14T19:04:55.939Z,102284.97
2023-02-14T19:07:28.540Z,102287.03
2023-02-14T19:09:59.080Z,102284.50
2023-02-14T19:12:29.956Z,102286.19
2023-02-14T19:15:00.885Z,102277.16
2023-02-14T19:17:31.204Z,102283.53
2023-02-14T19:19:59.768Z,102295.38
2023-02-14T19:22:36.502Z,102296.84
2023-02-14T19:25:10.672Z,102297.19
2023-02-14T19:27:41.036Z,102300.41
2023-02-14T19:30:16.748Z,102294.19
2023-02-14T19:32:44.563Z,102294.28
2023-02-14T19:35:15.209Z,102300.94
2023-02-14T19:37:51.728Z,102293.91
2023-02-14T19:40:27.648Z,102300.16
2023-02-14T19:42:55.283Z,102306.31
2023-02-14T19:45:30.313Z,102294.75
2023-02-14T19:48:03.590Z,102296.97
2023-02-14T19:50:31.725Z,102299.41
2023-02-14T19:53:07.590Z,102299.88
2023-02-14T19:55:41.337Z,102297.06
2023-02-14T19:58:14.073Z,102295.97
2023-02-14T20:00:56.347Z,102299.16
2023-02-14T20:03:29.106Z,102297.25
2023-02-14T20:05:56.859Z,102308.09
2023-02-14T20:08:32.887Z,102306.31
2023-02-14T20:11:05.647Z,102300.91
2023-02-14T20:13:35.481Z,102300.22
2023-02-14T20:16:06.080Z,102307.66
2023-02-14T20:18:34.825Z,102306.34
2023-02-14T20:21:18.053Z,102307.53
2023-02-14T20:23:45.898Z,102306.97
2023-02-14T20:26:15.439Z,102315.56
2023-02-14T20:28:48.698Z,102322.03
2023-02-14T20:31:21.647Z,102317.91
2023-02-14T20:33:51.951Z,102318.63
2023-02-14T20:36:23.212Z,102316.06
2023-02-14T20:38:57.868Z,102325.00
2023-02-14T20:41:34.458Z,102324.19
2023-02-14T20:44:11.416Z,102315.34
2023-02-14T20:46:41.408Z,102318.63
2023-02-14T20:49:12.454Z,102317.91
2023-02-14T20:51:40.915Z,102318.19
2023-02-14T20:54:08.600Z,102314.16
2023-02-14T20:56:40.299Z,102320.41
2023-02-14T20:59:10.568Z,102314.63
2023-02-14T21:01:40.996Z,102319.00
2023-02-14T21:04:14.208Z,102316.28
2023-02-14T21:06:49.828Z,102310.88
2023-02-14T21:09:20.838Z,102314.06
2023-02-14T21:11:49.619Z,102307.84
2023-02-14T21:14:20.966Z,102303.84
2023-02-14T21:16:51.015Z,102299.97
2023-02-14T21:19:26.473Z,102307.59
2023-02-14T21:21:57.891Z,102301.41
2023-02-14T21:24:33.622Z,102299.16
2023-02-14T21:27:04.369Z,102297.97
2023-02-14T21:29:32.221Z,102302.59
2023-02-14T21:32:02.465Z,102296.56
2023-02-14T21:34:33.923Z,102295.31
2023-02-14T21:37:07.394Z,102292.38
2023-02-14T21:39:37.978Z,102289.66
2023-02-14T21:42:07.683Z,102296.44
2023-02-14T21:44:59.990Z,102300.16
2023-02-14T21:47:30.727Z,102290.09
2023-02-14T21:50:19.873Z,102291.34
2023-02-14T21:52:50.826Z,102295.81
2023-02-14T21:55:18.588Z,102297.03
2023-02-14T21:57:50.012Z,102290.31
2023-02-14T22:00:22.671Z,102305.00
2023-02-14T22:02:53.200Z,102311.75
2023-02-14T22:05:25.469Z,102305.59
2023-02-14T22:08:00.612Z,102310.56
2023-02-14T22:10:33.219Z,102308.31
2023-02-14T22:13:04.791Z,102311.84
2023-02-14T22:15:37.474Z,102306.69
2023-02-14T22:18:07.457Z,102313.84
2023-02-14T22:20:38.051Z,102312.38
2023-02-14T22:23:10.509Z,102308.00
2023-02-14T22:25:38.378Z,102309.66
2023-02-14T22:28:11.126Z,102314.25
2023-02-14T22:30:44.237Z,102315.59
2023-02-14T22:33:18.252Z,102311.19
2023-02-14T22:35:47.134Z,102318.41
2023-02-14T22:38:17.535Z,102311.66
2023-02-14T22:40:50.807Z,102317.31
2023-02-14T22:43:23.956Z,102318.03
2023-02-14T22:45:54.749Z,102323.69
2023-02-14T22:48:25.540Z,102320.53
2023-02-14T22:50:58.734Z,102325.47
2023-02-14T22:53:28.926Z,102328.28
2023-02-14T22:56:08.584Z,102328.88
2023-02-14T22:58:38.544Z,102333.59
2023-02-14T23:01:31.641Z,102332.41
2023-02-14T23:04:04.056Z,102339.59
2023-02-14T23:06:34.488Z,102334.19
2023-02-14T23:09:07.939Z,102336.41
2023-02-14T23:11:38.733Z,102336.28
2023-02-14T23:14:30.648Z,102329.34
2023-02-14T23:17:25.406Z,102328.41
2023-02-14T23:20:17.455Z,102333.03
2023-02-14T23:22:48.194Z,102334.19
2023-02-14T23:25:23.612Z,102332.66
2023-02-14T23:27:56.613Z,102336.78
2023-02-14T23:30:24.380Z,102336.41
2023-02-14T23:32:54.793Z,102322.88
2023-02-14T23:35:22.905Z,102329.25
2023-02-14T23:37:50.804Z,102322.44
2023-02-14T23:40:22.992Z,102322.88
2023-02-14T23:42:55.414Z,102315.50
2023-02-14T23:45:35.049Z,102315.13
2023-02-14T23:48:09.676Z,102313.16
2023-02-14T23:50:43.806Z,102316.41
2023-02-14T23:53:14.785Z,102310.66
2023-02-14T23:55:45.429Z,102310.44
2023-02-14T23:58:15.295Z,102309.38
